createdAt,value
2018-07-14T00:00:00.352Z,5.90
2018-07-14T00:02:29.509Z,6.40
2018-07-14T00:04:58.374Z,8.00
2018-07-14T00:07:27.293Z,8.33
2018-07-14T00:09:56.152Z,9.17
2018-07-14T00:12:25.191Z,7.43
2018-07-14T00:14:54.052Z,6.27
2018-07-14T00:17:22.847Z,5.30
2018-07-14T00:19:52.230Z,7.67
2018-07-14T00:22:21.702Z,5.87
2018-07-14T00:24:50.543Z,4.93
2018-07-14T00:27:19.414Z,5.20
2018-07-14T00:29:48.996Z,6.10
2018-07-14T00:32:18.186Z,5.77
2018-07-14T00:34:46.645Z,6.37
2018-07-14T00:37:15.493Z,5.50
2018-07-14T00:39:44.936Z,5.40
2018-07-14T00:42:13.891Z,4.87
2018-07-14T00:44:43.733Z,4.03
2018-07-14T00:47:12.590Z,5.07
2018-07-14T00:49:40.977Z,5.17
2018-07-14T00:52:09.880Z,3.77
2018-07-14T00:54:38.682Z,5.30
2018-07-14T00:57:07.528Z,4.67
2018-07-14T00:59:36.364Z,5.57
2018-07-14T01:02:08.280Z,4.50
2018-07-14T01:04:37.120Z,5.13
2018-07-14T01:07:06.069Z,6.30
2018-07-14T01:09:34.936Z,4.90
2018-07-14T01:12:03.773Z,4.70
2018-07-14T01:14:32.202Z,4.70
2018-07-14T01:17:01.121Z,5.50
2018-07-14T01:19:29.996Z,6.20
2018-07-14T01:21:58.837Z,5.73
2018-07-14T01:24:27.740Z,5.20
2018-07-14T01:26:56.603Z,5.83
2018-07-14T01:29:25.475Z,4.77
2018-07-14T01:31:54.342Z,4.60
2018-07-14T01:34:23.227Z,4.87
2018-07-14T01:36:52.059Z,4.60
2018-07-14T01:39:20.922Z,3.90
2018-07-14T01:41:49.836Z,3.63
2018-07-14T01:44:18.637Z,3.57
2018-07-14T01:46:47.518Z,3.47
2018-07-14T01:49:16.334Z,3.53
2018-07-14T01:51:45.260Z,3.50
2018-07-14T01:54:14.045Z,4.13
2018-07-14T01:56:42.928Z,3.60
2018-07-14T01:59:11.790Z,3.60
2018-07-14T02:01:40.629Z,3.70
2018-07-14T02:04:09.053Z,3.60
2018-07-14T02:06:37.926Z,3.53
2018-07-14T02:09:06.932Z,3.60
2018-07-14T02:11:35.773Z,3.30
2018-07-14T02:14:04.661Z,3.93
2018-07-14T02:16:33.524Z,4.90
2018-07-14T02:19:02.393Z,4.57
2018-07-14T02:21:31.206Z,7.00
2018-07-14T02:24:00.133Z,9.97
2018-07-14T02:26:35.420Z,9.57
2018-07-14T02:29:04.418Z,8.80
2018-07-14T02:31:33.253Z,12.53
2018-07-14T02:34:02.387Z,9.43
2018-07-14T02:36:31.199Z,8.97
2018-07-14T02:39:00.201Z,8.90
2018-07-14T02:41:29.109Z,9.03
2018-07-14T02:43:57.918Z,6.90
2018-07-14T02:46:26.791Z,7.33
2018-07-14T02:48:55.865Z,7.80
2018-07-14T02:51:24.788Z,6.27
2018-07-14T02:53:53.592Z,8.30
2018-07-14T02:56:22.501Z,5.63
2018-07-14T02:58:51.536Z,5.77
2018-07-14T03:01:20.383Z,4.93
2018-07-14T03:03:49.219Z,5.43
2018-07-14T03:06:18.023Z,4.33
2018-07-14T03:08:46.931Z,4.40
2018-07-14T03:11:15.800Z,4.33
2018-07-14T03:13:44.640Z,4.90
2018-07-14T03:16:13.465Z,4.90
2018-07-14T03:18:42.339Z,4.50
2018-07-14T03:21:11.199Z,5.67
2018-07-14T03:23:40.029Z,6.37
2018-07-14T03:26:08.928Z,6.73
2018-07-14T03:28:37.744Z,5.63
2018-07-14T03:31:06.622Z,6.10
2018-07-14T03:33:35.433Z,8.37
2018-07-14T03:36:04.309Z,6.70
2018-07-14T03:38:33.177Z,7.73
2018-07-14T03:41:02.025Z,8.23
2018-07-14T03:43:31.166Z,13.37
2018-07-14T03:46:00.037Z,11.60
2018-07-14T03:48:28.872Z,11.13
2018-07-14T03:50:58.827Z,11.87
2018-07-14T03:53:27.675Z,11.20
2018-07-14T03:55:56.533Z,10.40
2018-07-14T03:58:25.377Z,11.13
2018-07-14T04:00:57.337Z,9.93
2018-07-14T04:03:26.221Z,8.50
2018-07-14T04:05:55.093Z,7.97
2018-07-14T04:08:23.897Z,7.20
2018-07-14T04:10:54.196Z,7.03
2018-07-14T04:13:23.129Z,7.17
2018-07-14T04:15:51.987Z,8.53
2018-07-14T04:18:20.933Z,8.83
2018-07-14T04:20:49.728Z,9.23
2018-07-14T04:23:18.558Z,10.50
2018-07-14T04:25:47.352Z,9.73
2018-07-14T04:28:16.165Z,8.97
2018-07-14T04:30:45.029Z,8.10
2018-07-14T04:33:13.912Z,9.23
2018-07-14T04:35:42.756Z,9.10
2018-07-14T04:38:12.041Z,8.20
2018-07-14T04:40:40.903Z,7.80
2018-07-14T04:43:09.741Z,8.00
2018-07-14T04:45:39.222Z,7.73
2018-07-14T04:48:08.050Z,7.57
2018-07-14T04:50:36.993Z,7.40
2018-07-14T04:53:05.933Z,7.80
2018-07-14T04:55:34.772Z,6.53
2018-07-14T04:58:03.628Z,6.33
2018-07-14T05:00:32.429Z,5.80
2018-07-14T05:03:01.258Z,7.83
2018-07-14T05:05:30.098Z,7.00
2018-07-14T05:07:58.921Z,8.07
2018-07-14T05:10:28.233Z,8.33
2018-07-14T05:12:57.074Z,8.43
2018-07-14T05:15:25.912Z,6.87
2018-07-14T05:17:54.760Z,8.00
2018-07-14T05:20:23.644Z,8.40
2018-07-14T05:22:52.549Z,7.37
2018-07-14T05:25:21.617Z,7.00
2018-07-14T05:27:50.476Z,6.23
2018-07-14T05:30:26.284Z,6.37
2018-07-14T05:32:55.164Z,6.77
2018-07-14T05:35:24.027Z,6.60
2018-07-14T05:37:52.892Z,6.40
2018-07-14T05:40:21.693Z,5.80
2018-07-14T05:42:50.526Z,5.63
2018-07-14T05:45:19.473Z,5.37
2018-07-14T05:47:48.313Z,6.27
2018-07-14T05:50:17.165Z,6.40
2018-07-14T05:52:45.619Z,6.43
2018-07-14T05:55:14.511Z,6.37
2018-07-14T05:57:43.347Z,7.57
2018-07-14T06:00:12.366Z,8.33
2018-07-14T06:02:41.277Z,7.17
2018-07-14T06:05:10.169Z,6.30
2018-07-14T06:07:39.170Z,6.53
2018-07-14T06:10:08.028Z,6.30
2018-07-14T06:12:36.936Z,6.63
2018-07-14T06:15:06.018Z,5.93
2018-07-14T06:17:35.129Z,5.93
2018-07-14T06:20:04.075Z,6.10
2018-07-14T06:22:32.990Z,5.13
2018-07-14T06:25:01.485Z,10.17
2018-07-14T06:27:30.383Z,10.30
2018-07-14T06:29:59.209Z,9.53
2018-07-14T06:32:28.166Z,8.20
2018-07-14T06:34:57.045Z,9.77
2018-07-14T06:37:26.050Z,10.93
2018-07-14T06:39:55.236Z,12.27
2018-07-14T06:42:23.797Z,11.33
2018-07-14T06:44:52.763Z,10.43
2018-07-14T06:47:21.642Z,11.17
2018-07-14T06:49:50.064Z,12.37
2018-07-14T06:52:19.053Z,10.97
2018-07-14T06:54:48.038Z,12.77
2018-07-14T06:57:16.974Z,11.10
2018-07-14T06:59:45.467Z,11.53
2018-07-14T07:02:13.920Z,10.43
2018-07-14T07:04:42.380Z,11.07
2018-07-14T07:07:11.245Z,11.77
2018-07-14T07:09:40.100Z,12.63
2018-07-14T07:12:08.963Z,11.37
2018-07-14T07:14:37.817Z,12.03
2018-07-14T07:17:07.860Z,11.97
2018-07-14T07:19:36.988Z,10.83
2018-07-14T07:22:05.950Z,10.40
2018-07-14T07:24:34.868Z,14.10
2018-07-14T07:27:03.696Z,13.03
2018-07-14T07:29:32.552Z,12.40
2018-07-14T07:32:01.749Z,12.63
2018-07-14T07:34:30.656Z,13.17
2018-07-14T07:36:59.518Z,11.60
2018-07-14T07:39:28.662Z,15.43
2018-07-14T07:41:57.667Z,13.23
2018-07-14T07:44:26.532Z,12.97
2018-07-14T07:46:55.402Z,11.43
2018-07-14T07:49:24.372Z,11.80
2018-07-14T07:51:53.307Z,10.87
2018-07-14T07:54:22.209Z,10.63
2018-07-14T07:56:51.073Z,10.90
2018-07-14T07:59:20.532Z,11.20
2018-07-14T08:01:49.457Z,11.30
2018-07-14T08:04:18.321Z,12.77
2018-07-14T08:06:47.236Z,12.23
2018-07-14T08:09:16.068Z,11.23
2018-07-14T08:11:44.978Z,12.93
2018-07-14T08:14:13.853Z,13.63
2018-07-14T08:16:42.764Z,11.20
2018-07-14T08:19:11.621Z,12.33
2018-07-14T08:21:40.092Z,12.70
2018-07-14T08:24:09.001Z,9.77
2018-07-14T08:26:37.877Z,9.60
2018-07-14T08:29:06.761Z,10.67
2018-07-14T08:31:35.260Z,10.00
2018-07-14T08:34:04.251Z,10.50
2018-07-14T08:36:33.082Z,11.97
2018-07-14T08:39:01.949Z,10.30
2018-07-14T08:41:30.840Z,9.90
2018-07-14T08:43:59.737Z,10.00
2018-07-14T08:46:28.602Z,10.43
2018-07-14T08:48:57.088Z,9.83
2018-07-14T08:51:25.558Z,8.50
2018-07-14T08:53:54.373Z,7.70
2018-07-14T08:56:23.310Z,11.03
2018-07-14T08:58:52.116Z,9.90
2018-07-14T09:01:20.999Z,9.57
2018-07-14T09:03:49.877Z,8.83
2018-07-14T09:06:18.761Z,7.80
2018-07-14T09:08:47.657Z,7.50
2018-07-14T09:11:16.547Z,7.63
2018-07-14T09:13:45.438Z,8.80
2018-07-14T09:16:14.322Z,8.90
2018-07-14T09:18:43.220Z,8.83
2018-07-14T09:21:12.097Z,9.00
2018-07-14T09:23:40.609Z,9.00
2018-07-14T09:26:09.870Z,9.37
2018-07-14T09:28:38.674Z,8.20
2018-07-14T09:31:07.555Z,8.57
2018-07-14T09:33:36.863Z,7.70
2018-07-14T09:36:05.725Z,8.13
2018-07-14T09:38:34.609Z,7.77
2018-07-14T09:41:03.565Z,8.40
2018-07-14T09:43:32.509Z,8.33
2018-07-14T09:46:00.905Z,8.53
2018-07-14T09:48:29.810Z,10.90
2018-07-14T09:50:58.650Z,8.17
2018-07-14T09:53:27.528Z,8.57
2018-07-14T09:55:56.493Z,8.33
2018-07-14T09:58:25.416Z,8.37
2018-07-14T10:00:59.628Z,8.47
2018-07-14T10:03:28.523Z,7.83
2018-07-14T10:05:57.420Z,12.03
2018-07-14T10:08:26.276Z,7.83
2018-07-14T10:10:55.126Z,7.90
2018-07-14T10:13:23.997Z,7.77
2018-07-14T10:15:52.801Z,8.10
2018-07-14T10:18:21.681Z,16.33
2018-07-14T10:20:50.525Z,7.70
2018-07-14T10:23:19.483Z,8.03
2018-07-14T10:25:48.519Z,7.77
2018-07-14T10:28:17.286Z,8.17
2018-07-14T10:30:46.148Z,7.37
2018-07-14T10:33:15.092Z,7.10
2018-07-14T10:35:44.446Z,19.97
2018-07-14T10:38:14.643Z,10.23
2018-07-14T10:40:43.482Z,10.97
2018-07-14T10:43:12.502Z,15.20
2018-07-14T10:45:41.426Z,10.10
2018-07-14T10:48:12.999Z,8.27
2018-07-14T10:50:41.410Z,12.53
2018-07-14T10:53:10.376Z,9.57
2018-07-14T10:55:39.242Z,9.73
2018-07-14T10:58:08.150Z,7.50
2018-07-14T11:00:37.071Z,8.60
2018-07-14T11:03:05.563Z,7.53
2018-07-14T11:05:34.404Z,6.87
2018-07-14T11:08:03.389Z,8.23
2018-07-14T11:10:32.223Z,7.77
2018-07-14T11:13:00.677Z,8.73
2018-07-14T11:15:29.578Z,6.83
2018-07-14T11:17:58.430Z,6.60
2018-07-14T11:20:27.281Z,6.60
2018-07-14T11:22:56.183Z,7.30
2018-07-14T11:25:25.053Z,6.97
2018-07-14T11:27:54.108Z,6.77
2018-07-14T11:30:26.608Z,6.60
2018-07-14T11:32:55.702Z,5.57
2018-07-14T11:35:24.564Z,7.33
2018-07-14T11:37:53.391Z,5.60
2018-07-14T11:40:22.226Z,7.30
2018-07-14T11:42:51.036Z,6.77
2018-07-14T11:45:19.864Z,6.00
2018-07-14T11:47:48.751Z,6.57
2018-07-14T11:50:17.612Z,6.20
2018-07-14T11:52:46.484Z,6.63
2018-07-14T11:55:15.667Z,6.23
2018-07-14T11:57:44.540Z,6.43
2018-07-14T12:00:13.867Z,6.70
2018-07-14T12:02:42.818Z,6.10
2018-07-14T12:05:11.712Z,5.57
2018-07-14T12:07:40.716Z,5.93
2018-07-14T12:10:09.576Z,6.10
2018-07-14T12:12:38.928Z,5.93
2018-07-14T12:15:07.890Z,4.60
2018-07-14T12:17:36.698Z,5.60
2018-07-14T12:20:05.977Z,5.37
2018-07-14T12:22:35.133Z,4.90
2018-07-14T12:25:04.223Z,5.13
2018-07-14T12:27:33.224Z,5.27
2018-07-14T12:30:02.174Z,4.77
2018-07-14T12:32:31.104Z,5.10
2018-07-14T12:35:00.021Z,5.00
2018-07-14T12:37:28.900Z,6.47
2018-07-14T12:39:57.860Z,5.10
2018-07-14T12:42:26.660Z,6.20
2018-07-14T12:44:55.517Z,7.37
2018-07-14T12:47:24.650Z,5.23
2018-07-14T12:49:53.611Z,4.40
2018-07-14T12:52:22.926Z,4.60
2018-07-14T12:54:51.849Z,4.27
2018-07-14T12:57:20.883Z,4.30
2018-07-14T12:59:50.959Z,4.80
2018-07-14T13:02:20.477Z,3.63
2018-07-14T13:04:49.688Z,3.97
2018-07-14T13:07:18.543Z,4.10
2018-07-14T13:09:47.398Z,3.70
2018-07-14T13:12:16.273Z,3.73
2018-07-14T13:14:45.166Z,3.70
2018-07-14T13:17:14.271Z,3.77
2018-07-14T13:19:43.118Z,3.43
2018-07-14T13:22:11.944Z,3.10
2018-07-14T13:24:40.811Z,3.13
2018-07-14T13:27:09.680Z,3.80
2018-07-14T13:29:38.297Z,4.07
2018-07-14T13:32:07.245Z,2.90
2018-07-14T13:34:35.682Z,3.17
2018-07-14T13:37:04.577Z,2.87
2018-07-14T13:39:33.392Z,3.03
2018-07-14T13:42:02.290Z,2.70
2018-07-14T13:44:31.148Z,2.53
2018-07-14T13:46:59.969Z,2.83
2018-07-14T13:49:29.798Z,2.60
2018-07-14T13:51:58.669Z,2.80
2018-07-14T13:54:27.591Z,4.05
2018-07-14T13:56:56.488Z,2.85
2018-07-14T13:59:28.580Z,2.70
2018-07-14T14:01:57.475Z,2.47
2018-07-14T14:04:26.391Z,2.65
2018-07-14T14:06:55.256Z,2.50
2018-07-14T14:09:25.117Z,3.08
2018-07-14T14:11:54.506Z,2.45
2018-07-14T14:14:23.328Z,2.62
2018-07-14T14:16:52.547Z,2.47
2018-07-14T14:19:21.400Z,2.25
2018-07-14T14:21:50.247Z,2.40
2018-07-14T14:24:18.831Z,2.22
2018-07-14T14:26:47.917Z,2.58
2018-07-14T14:29:16.798Z,2.35
2018-07-14T14:31:45.717Z,2.60
2018-07-14T14:34:14.599Z,4.30
2018-07-14T14:36:43.460Z,3.17
2018-07-14T14:39:12.335Z,2.70
2018-07-14T14:41:41.173Z,2.40
2018-07-14T14:44:10.013Z,2.80
2018-07-14T14:46:38.858Z,2.50
2018-07-14T14:49:07.773Z,2.45
2018-07-14T14:51:37.020Z,2.67
2018-07-14T14:54:05.993Z,2.92
2018-07-14T14:56:34.845Z,4.58
2018-07-14T14:59:03.686Z,2.37
2018-07-14T15:01:32.855Z,3.60
2018-07-14T15:04:01.746Z,2.80
2018-07-14T15:06:30.589Z,2.60
2018-07-14T15:08:59.493Z,4.03
2018-07-14T15:11:28.321Z,2.05
2018-07-14T15:13:57.544Z,2.62
2018-07-14T15:16:26.505Z,2.95
2018-07-14T15:18:55.378Z,3.05
2018-07-14T15:21:25.240Z,2.37
2018-07-14T15:23:54.080Z,2.35
2018-07-14T15:26:23.342Z,2.55
2018-07-14T15:28:52.225Z,2.75
2018-07-14T15:31:21.356Z,2.60
2018-07-14T15:33:50.233Z,2.22
2018-07-14T15:36:19.152Z,2.58
2018-07-14T15:38:48.053Z,2.85
2018-07-14T15:41:16.861Z,2.55
2018-07-14T15:43:45.713Z,2.60
2018-07-14T15:46:14.548Z,2.12
2018-07-14T15:48:43.422Z,2.20
2018-07-14T15:51:12.354Z,2.17
2018-07-14T15:53:41.200Z,2.50
2018-07-14T15:56:10.066Z,2.17
2018-07-14T15:58:39.673Z,2.22
2018-07-14T16:01:08.550Z,3.22
2018-07-14T16:03:37.452Z,2.37
2018-07-14T16:06:06.377Z,1.90
2018-07-14T16:08:36.027Z,2.00
2018-07-14T16:11:04.938Z,3.45
2018-07-14T16:13:33.827Z,2.35
2018-07-14T16:16:02.712Z,2.45
2018-07-14T16:18:31.615Z,2.27
2018-07-14T16:21:01.137Z,2.20
2018-07-14T16:23:30.188Z,2.10
2018-07-14T16:25:59.213Z,2.10
2018-07-14T16:28:27.727Z,2.58
2018-07-14T16:30:56.547Z,2.30
2018-07-14T16:33:25.435Z,2.05
2018-07-14T16:35:54.375Z,2.15
2018-07-14T16:38:23.202Z,2.27
2018-07-14T16:40:52.093Z,2.77
2018-07-14T16:43:20.973Z,2.10
2018-07-14T16:45:49.921Z,2.20
2018-07-14T16:48:18.728Z,3.50
2018-07-14T16:50:47.565Z,2.00
2018-07-14T16:53:16.445Z,2.35
2018-07-14T16:55:45.239Z,2.30
2018-07-14T16:58:14.168Z,2.10
2018-07-14T17:00:43.118Z,2.58
2018-07-14T17:03:11.600Z,2.40
2018-07-14T17:05:40.832Z,2.65
2018-07-14T17:08:09.663Z,2.20
2018-07-14T17:10:40.537Z,3.17
2018-07-14T17:13:09.066Z,2.52
2018-07-14T17:15:37.904Z,2.62
2018-07-14T17:18:08.353Z,2.65
2018-07-14T17:20:40.319Z,2.60
2018-07-14T17:23:09.451Z,2.30
2018-07-14T17:25:38.406Z,3.62
2018-07-14T17:28:07.309Z,2.50
2018-07-14T17:30:36.200Z,3.47
2018-07-14T17:33:04.724Z,3.35
2018-07-14T17:35:33.554Z,3.10
2018-07-14T17:38:02.509Z,2.83
2018-07-14T17:40:31.333Z,3.25
2018-07-14T17:43:00.937Z,3.95
2018-07-14T17:45:29.817Z,2.40
2018-07-14T17:47:58.645Z,3.87
2018-07-14T17:50:27.538Z,3.10
2018-07-14T17:52:57.392Z,3.92
2018-07-14T17:55:26.261Z,3.10
2018-07-14T17:57:55.091Z,2.67
2018-07-14T18:00:23.895Z,3.52
2018-07-14T18:02:52.775Z,2.75
2018-07-14T18:05:21.836Z,2.67
2018-07-14T18:07:50.583Z,3.30
2018-07-14T18:10:19.440Z,2.83
2018-07-14T18:12:49.119Z,3.27
2018-07-14T18:15:18.201Z,3.12
2018-07-14T18:17:47.073Z,4.30
2018-07-14T18:20:15.958Z,2.62
2018-07-14T18:22:44.829Z,2.92
2018-07-14T18:25:13.731Z,2.95
2018-07-14T18:27:42.557Z,2.72
2018-07-14T18:30:11.381Z,3.60
2018-07-14T18:32:40.201Z,3.05
2018-07-14T18:35:09.094Z,3.27
2018-07-14T18:37:37.926Z,2.60
2018-07-14T18:40:06.894Z,2.83
2018-07-14T18:42:35.711Z,2.80
2018-07-14T18:45:04.738Z,2.90
2018-07-14T18:47:33.597Z,3.05
2018-07-14T18:50:02.462Z,2.80
2018-07-14T18:52:31.623Z,2.77
2018-07-14T18:55:00.485Z,3.15
2018-07-14T18:57:29.326Z,3.12
2018-07-14T18:59:58.248Z,3.00
2018-07-14T19:02:27.144Z,2.92
2018-07-14T19:04:56.170Z,3.65
2018-07-14T19:07:25.145Z,2.98
2018-07-14T19:09:54.005Z,2.83
2018-07-14T19:12:22.839Z,4.57
2018-07-14T19:14:51.627Z,5.07
2018-07-14T19:17:20.534Z,3.30
2018-07-14T19:19:49.345Z,4.57
2018-07-14T19:22:18.265Z,3.57
2018-07-14T19:24:47.089Z,3.53
2018-07-14T19:27:15.911Z,2.83
2018-07-14T19:29:44.729Z,4.93
2018-07-14T19:32:14.172Z,3.60
2018-07-14T19:34:43.009Z,4.90
2018-07-14T19:37:12.079Z,3.30
2018-07-14T19:39:41.017Z,3.27
2018-07-14T19:42:10.913Z,2.87
2018-07-14T19:44:39.766Z,5.10
2018-07-14T19:47:08.613Z,3.37
2018-07-14T19:49:37.605Z,3.63
2018-07-14T19:52:06.450Z,2.90
2018-07-14T19:54:35.296Z,5.13
2018-07-14T19:57:03.740Z,3.90
2018-07-14T19:59:32.615Z,3.53
2018-07-14T20:02:01.564Z,3.27
2018-07-14T20:04:30.078Z,4.40
2018-07-14T20:06:58.996Z,5.40
2018-07-14T20:09:27.867Z,4.17
2018-07-14T20:11:56.696Z,4.40
2018-07-14T20:14:25.549Z,4.23
2018-07-14T20:16:54.406Z,4.17
2018-07-14T20:19:23.266Z,3.93
2018-07-14T20:21:52.106Z,3.00
2018-07-14T20:24:21.133Z,3.30
2018-07-14T20:26:50.854Z,3.73
2018-07-14T20:29:19.683Z,5.83
2018-07-14T20:31:48.563Z,4.37
2018-07-14T20:34:17.407Z,3.30
2018-07-14T20:36:46.269Z,3.33
2018-07-14T20:39:15.149Z,5.23
2018-07-14T20:41:44.056Z,3.13
2018-07-14T20:44:12.440Z,4.30
2018-07-14T20:46:41.281Z,4.80
2018-07-14T20:49:10.115Z,4.07
2018-07-14T20:51:38.910Z,3.97
2018-07-14T20:54:07.774Z,4.83
2018-07-14T20:56:36.945Z,3.23
2018-07-14T20:59:05.758Z,3.30
2018-07-14T21:01:34.863Z,3.57
2018-07-14T21:04:04.510Z,3.80
2018-07-14T21:06:33.443Z,4.07
2018-07-14T21:09:02.299Z,4.10
2018-07-14T21:11:31.136Z,3.07
2018-07-14T21:13:59.952Z,4.60
2018-07-14T21:16:28.853Z,3.10
2018-07-14T21:18:57.645Z,3.10
2018-07-14T21:21:27.455Z,3.90
2018-07-14T21:23:56.204Z,4.40
2018-07-14T21:26:25.071Z,4.27
2018-07-14T21:28:53.913Z,2.90
2018-07-14T21:31:22.770Z,3.17
2018-07-14T21:33:51.669Z,5.20
2018-07-14T21:36:20.736Z,3.50
2018-07-14T21:38:49.661Z,3.07
2018-07-14T21:41:18.488Z,3.03
2018-07-14T21:43:47.321Z,3.80
2018-07-14T21:46:16.285Z,5.20
2018-07-14T21:48:45.148Z,3.03
2018-07-14T21:51:18.977Z,3.20
2018-07-14T21:53:47.829Z,3.17
2018-07-14T21:56:16.690Z,3.23
2018-07-14T21:58:45.525Z,3.27
2018-07-14T22:01:19.745Z,5.47
2018-07-14T22:03:48.763Z,3.60
2018-07-14T22:06:18.058Z,3.03
2018-07-14T22:08:46.901Z,3.83
2018-07-14T22:11:15.860Z,4.30
2018-07-14T22:13:46.115Z,4.10
2018-07-14T22:16:14.565Z,4.57
2018-07-14T22:18:43.415Z,4.70
2018-07-14T22:21:12.309Z,4.87
2018-07-14T22:23:41.213Z,4.33
2018-07-14T22:26:10.060Z,3.87
2018-07-14T22:28:38.992Z,4.90
2018-07-14T22:31:07.572Z,4.17
2018-07-14T22:33:36.519Z,4.20
2018-07-14T22:36:05.408Z,4.53
2018-07-14T22:38:34.256Z,4.40
2018-07-14T22:41:03.141Z,4.50
2018-07-14T22:43:32.126Z,4.57
2018-07-14T22:46:01.130Z,4.50
2018-07-14T22:48:29.969Z,4.43
2018-07-14T22:50:58.826Z,7.90
2018-07-14T22:53:27.659Z,6.23
2018-07-14T22:55:56.916Z,6.10
2018-07-14T22:58:25.780Z,5.33
2018-07-14T23:00:54.724Z,6.90
2018-07-14T23:03:23.757Z,4.90
2018-07-14T23:05:52.571Z,5.33
2018-07-14T23:08:21.400Z,4.93
2018-07-14T23:10:51.277Z,6.07
2018-07-14T23:13:20.831Z,7.73
2018-07-14T23:15:49.661Z,5.87
2018-07-14T23:18:19.396Z,7.47
2018-07-14T23:20:48.232Z,10.40
2018-07-14T23:23:16.651Z,8.70
2018-07-14T23:25:45.525Z,8.53
2018-07-14T23:28:14.319Z,8.47
2018-07-14T23:30:43.182Z,12.00
2018-07-14T23:33:12.041Z,8.07
2018-07-14T23:35:40.885Z,9.53
2018-07-14T23:38:09.889Z,9.17
2018-07-14T23:40:38.742Z,9.80
2018-07-14T23:43:07.207Z,6.80
2018-07-14T23:45:36.047Z,7.90
2018-07-14T23:48:05.045Z,6.57
2018-07-14T23:50:34.654Z,6.73
2018-07-14T23:53:03.546Z,7.53
2018-07-14T23:55:32.409Z,6.93
2018-07-14T23:58:01.321Z,8.50
